Tres Fronteiras, Brazil
Current Conditions -  °F | °C
As of 7:35 AM on Monday 24 Nov 2014 (Local Time) from SBSR Reporting Station
Broken Clouds Broken Clouds  
Wind Chill: 73°   Ceiling: 700
Heat Index: 73°   Visibility: 5mi
Dew Point: 70°   Wind: 2mph
Humidity: 88%   Direction: 120°ESE
Pressure: 29.97"   Gusts: NA
Location:  20.24°S, 50.89°W
Report Text: SBSR 240935Z 12002KT 8000 BKN007 SCT050 BKN070 23/21 Q1015
Loading
Personal Weather Stations






























Interactive Weather Map New forecast layout! Learn more

10-Day Weather Forecast

Advertisements
Track Severe Weather on mobile